sensor_id;sensor_type;location;lat;lon;timestamp;temperature;humidity
56308;DHT22;42217;50.422;7.210;2023-08-01T00:00:34;16.10;99.90
56308;DHT22;42217;50.422;7.210;2023-08-01T00:03:00;16.10;99.90
56308;DHT22;42217;50.422;7.210;2023-08-01T00:05:25;16.10;99.90
56308;DHT22;42217;50.422;7.210;2023-08-01T00:07:52;16.10;99.90
56308;DHT22;42217;50.422;7.210;2023-08-01T00:10:17;16.10;99.90
56308;DHT22;42217;50.422;7.210;2023-08-01T00:12:43;16.10;99.90
56308;DHT22;42217;50.422;7.210;2023-08-01T00:15:09;16.10;99.90
56308;DHT22;42217;50.422;7.210;2023-08-01T00:17:35;16.00;99.90
56308;DHT22;42217;50.422;7.210;2023-08-01T00:20:02;16.10;99.90
56308;DHT22;42217;50.422;7.210;2023-08-01T00:22:28;16.10;99.90
56308;DHT22;42217;50.422;7.210;2023-08-01T00:24:54;16.20;99.90
56308;DHT22;42217;50.422;7.210;2023-08-01T00:27:19;16.30;99.90
56308;DHT22;42217;50.422;7.210;2023-08-01T00:29:45;16.30;99.90
56308;DHT22;42217;50.422;7.210;2023-08-01T00:32:11;16.20;99.90
56308;DHT22;42217;50.422;7.210;2023-08-01T00:34:37;16.20;99.90
56308;DHT22;42217;50.422;7.210;2023-08-01T00:37:03;16.10;99.90
56308;DHT22;42217;50.422;7.210;2023-08-01T00:39:28;16.10;99.90
56308;DHT22;42217;50.422;7.210;2023-08-01T00:41:54;16.20;99.90
56308;DHT22;42217;50.422;7.210;2023-08-01T00:44:20;16.30;99.90
56308;DHT22;42217;50.422;7.210;2023-08-01T00:46:46;16.30;99.90
56308;DHT22;42217;50.422;7.210;2023-08-01T00:49:13;16.30;99.90
56308;DHT22;42217;50.422;7.210;2023-08-01T00:51:39;16.30;99.90
56308;DHT22;42217;50.422;7.210;2023-08-01T00:54:05;16.30;99.90
56308;DHT22;42217;50.422;7.210;2023-08-01T00:56:31;16.30;99.90
56308;DHT22;42217;50.422;7.210;2023-08-01T00:58:57;16.40;99.90
56308;DHT22;42217;50.422;7.210;2023-08-01T01:01:22;16.40;99.90
56308;DHT22;42217;50.422;7.210;2023-08-01T01:03:48;16.40;99.90
56308;DHT22;42217;50.422;7.210;2023-08-01T01:06:25;16.50;99.90
56308;DHT22;42217;50.422;7.210;2023-08-01T01:08:53;16.40;99.90
56308;DHT22;42217;50.422;7.210;2023-08-01T01:11:20;16.40;99.90
56308;DHT22;42217;50.422;7.210;2023-08-01T01:13:46;16.40;99.90
56308;DHT22;42217;50.422;7.210;2023-08-01T01:16:12;16.40;99.90
56308;DHT22;42217;50.422;7.210;2023-08-01T01:18:37;16.40;99.90
56308;DHT22;42217;50.422;7.210;2023-08-01T01:21:03;16.40;99.90
56308;DHT22;42217;50.422;7.210;2023-08-01T01:23:30;16.40;99.90
56308;DHT22;42217;50.422;7.210;2023-08-01T01:25:57;16.50;99.90
56308;DHT22;42217;50.422;7.210;2023-08-01T01:28:24;16.50;99.90
56308;DHT22;42217;50.422;7.210;2023-08-01T01:30:51;16.50;99.90
56308;DHT22;42217;50.422;7.210;2023-08-01T01:33:18;16.50;99.90
56308;DHT22;42217;50.422;7.210;2023-08-01T01:35:44;16.50;99.90
56308;DHT22;42217;50.422;7.210;2023-08-01T01:38:10;16.50;99.90
56308;DHT22;42217;50.422;7.210;2023-08-01T01:40:35;16.40;99.90
56308;DHT22;42217;50.422;7.210;2023-08-01T01:43:01;16.40;99.90
56308;DHT22;42217;50.422;7.210;2023-08-01T01:45:27;16.40;99.90
56308;DHT22;42217;50.422;7.210;2023-08-01T01:47:53;16.40;99.90
56308;DHT22;42217;50.422;7.210;2023-08-01T01:50:18;16.40;99.90
56308;DHT22;42217;50.422;7.210;2023-08-01T01:52:45;16.30;99.90
56308;DHT22;42217;50.422;7.210;2023-08-01T01:55:10;16.30;99.90
56308;DHT22;42217;50.422;7.210;2023-08-01T01:57:36;16.30;99.90
56308;DHT22;42217;50.422;7.210;2023-08-01T02:00:05;16.30;99.90
56308;DHT22;42217;50.422;7.210;2023-08-01T02:02:31;16.40;99.90
56308;DHT22;42217;50.422;7.210;2023-08-01T02:04:57;16.40;99.90
56308;DHT22;42217;50.422;7.210;2023-08-01T02:07:22;16.30;99.90
56308;DHT22;42217;50.422;7.210;2023-08-01T02:09:48;16.30;99.90
56308;DHT22;42217;50.422;7.210;2023-08-01T02:12:14;16.30;99.90
56308;DHT22;42217;50.422;7.210;2023-08-01T02:14:40;16.30;99.90
56308;DHT22;42217;50.422;7.210;2023-08-01T02:17:06;16.40;99.90
56308;DHT22;42217;50.422;7.210;2023-08-01T02:19:32;16.40;99.90
56308;DHT22;42217;50.422;7.210;2023-08-01T02:21:58;16.40;99.90
56308;DHT22;42217;50.422;7.210;2023-08-01T02:24:24;16.40;99.90
56308;DHT22;42217;50.422;7.210;2023-08-01T02:26:50;16.40;99.90
56308;DHT22;42217;50.422;7.210;2023-08-01T02:29:16;16.40;99.90
56308;DHT22;42217;50.422;7.210;2023-08-01T02:31:42;16.40;99.90
56308;DHT22;42217;50.422;7.210;2023-08-01T02:34:08;16.40;99.90
56308;DHT22;42217;50.422;7.210;2023-08-01T02:36:33;16.40;99.90
56308;DHT22;42217;50.422;7.210;2023-08-01T02:38:59;16.40;99.90
56308;DHT22;42217;50.422;7.210;2023-08-01T02:41:25;16.40;99.90
56308;DHT22;42217;50.422;7.210;2023-08-01T02:43:51;16.40;99.90
56308;DHT22;42217;50.422;7.210;2023-08-01T02:46:16;16.40;99.90
56308;DHT22;42217;50.422;7.210;2023-08-01T02:48:42;16.40;99.90
56308;DHT22;42217;50.422;7.210;2023-08-01T02:51:08;16.40;99.90
56308;DHT22;42217;50.422;7.210;2023-08-01T02:53:37;16.40;99.90
56308;DHT22;42217;50.422;7.210;2023-08-01T02:56:02;16.50;99.90
56308;DHT22;42217;50.422;7.210;2023-08-01T02:58:30;16.50;99.90
56308;DHT22;42217;50.422;7.210;2023-08-01T03:00:55;16.50;99.90
56308;DHT22;42217;50.422;7.210;2023-08-01T03:03:21;16.50;99.90
56308;DHT22;42217;50.422;7.210;2023-08-01T03:05:47;16.60;99.90
56308;DHT22;42217;50.422;7.210;2023-08-01T03:08:13;16.50;99.90
56308;DHT22;42217;50.422;7.210;2023-08-01T03:10:39;16.60;99.90
56308;DHT22;42217;50.422;7.210;2023-08-01T03:13:04;16.60;99.90
56308;DHT22;42217;50.422;7.210;2023-08-01T03:15:30;16.60;99.90
56308;DHT22;42217;50.422;7.210;2023-08-01T03:17:56;16.50;99.90
56308;DHT22;42217;50.422;7.210;2023-08-01T03:20:21;16.50;99.90
56308;DHT22;42217;50.422;7.210;2023-08-01T03:22:48;16.50;99.90
56308;DHT22;42217;50.422;7.210;2023-08-01T03:25:13;16.40;99.90
56308;DHT22;42217;50.422;7.210;2023-08-01T03:27:39;16.40;99.90
56308;DHT22;42217;50.422;7.210;2023-08-01T03:30:05;16.40;99.90
56308;DHT22;42217;50.422;7.210;2023-08-01T03:32:34;16.40;99.90
56308;DHT22;42217;50.422;7.210;2023-08-01T03:35:00;16.30;99.90
56308;DHT22;42217;50.422;7.210;2023-08-01T03:37:26;16.30;99.90
56308;DHT22;42217;50.422;7.210;2023-08-01T03:39:52;16.10;99.90
56308;DHT22;42217;50.422;7.210;2023-08-01T03:42:17;16.10;99.90
56308;DHT22;42217;50.422;7.210;2023-08-01T03:44:43;16.10;99.90
56308;DHT22;42217;50.422;7.210;2023-08-01T03:47:08;16.10;99.90
56308;DHT22;42217;50.422;7.210;2023-08-01T03:49:34;16.10;99.90
56308;DHT22;42217;50.422;7.210;2023-08-01T03:52:00;16.00;99.90
56308;DHT22;42217;50.422;7.210;2023-08-01T03:54:26;15.90;99.90
56308;DHT22;42217;50.422;7.210;2023-08-01T03:56:52;16.00;99.90
56308;DHT22;42217;50.422;7.210;2023-08-01T03:59:18;16.00;99.90
56308;DHT22;42217;50.422;7.210;2023-08-01T04:01:43;16.10;99.90
56308;DHT22;42217;50.422;7.210;2023-08-01T04:04:10;16.10;99.90
56308;DHT22;42217;50.422;7.210;2023-08-01T04:06:36;16.00;99.90
56308;DHT22;42217;50.422;7.210;2023-08-01T04:09:01;16.00;99.90
56308;DHT22;42217;50.422;7.210;2023-08-01T04:11:27;15.90;99.90
56308;DHT22;42217;50.422;7.210;2023-08-01T04:13:55;15.90;99.90
56308;DHT22;42217;50.422;7.210;2023-08-01T04:16:21;15.90;99.90
56308;DHT22;42217;50.422;7.210;2023-08-01T04:18:47;15.90;99.90
56308;DHT22;42217;50.422;7.210;2023-08-01T04:21:14;15.90;99.90
56308;DHT22;42217;50.422;7.210;2023-08-01T04:23:40;15.90;99.90
56308;DHT22;42217;50.422;7.210;2023-08-01T04:26:06;15.90;99.90
56308;DHT22;42217;50.422;7.210;2023-08-01T04:28:32;15.80;99.90
56308;DHT22;42217;50.422;7.210;2023-08-01T04:30:58;15.80;99.90
56308;DHT22;42217;50.422;7.210;2023-08-01T04:33:24;15.80;99.90
56308;DHT22;42217;50.422;7.210;2023-08-01T04:35:49;15.80;99.90
56308;DHT22;42217;50.422;7.210;2023-08-01T04:38:16;15.70;99.90
56308;DHT22;42217;50.422;7.210;2023-08-01T04:40:42;15.60;99.90
56308;DHT22;42217;50.422;7.210;2023-08-01T04:43:07;15.50;99.90
56308;DHT22;42217;50.422;7.210;2023-08-01T04:45:33;15.50;99.90
56308;DHT22;42217;50.422;7.210;2023-08-01T04:47:59;15.40;99.90
56308;DHT22;42217;50.422;7.210;2023-08-01T04:50:24;15.40;99.90
56308;DHT22;42217;50.422;7.210;2023-08-01T04:52:50;15.30;99.90
56308;DHT22;42217;50.422;7.210;2023-08-01T04:55:16;15.20;99.90
56308;DHT22;42217;50.422;7.210;2023-08-01T04:57:41;15.20;99.90
56308;DHT22;42217;50.422;7.210;2023-08-01T05:00:09;15.10;99.90
56308;DHT22;42217;50.422;7.210;2023-08-01T05:02:35;15.00;99.90
56308;DHT22;42217;50.422;7.210;2023-08-01T05:05:01;15.00;99.90
56308;DHT22;42217;50.422;7.210;2023-08-01T05:07:26;15.00;99.90
56308;DHT22;42217;50.422;7.210;2023-08-01T05:09:52;15.00;99.90
56308;DHT22;42217;50.422;7.210;2023-08-01T05:12:17;15.00;99.90
56308;DHT22;42217;50.422;7.210;2023-08-01T05:14:43;15.00;99.90
56308;DHT22;42217;50.422;7.210;2023-08-01T05:17:09;15.00;99.90
56308;DHT22;42217;50.422;7.210;2023-08-01T05:19:34;14.90;99.90
56308;DHT22;42217;50.422;7.210;2023-08-01T05:22:00;14.90;99.90
56308;DHT22;42217;50.422;7.210;2023-08-01T05:24:26;14.90;99.90
56308;DHT22;42217;50.422;7.210;2023-08-01T05:26:52;15.00;99.90
56308;DHT22;42217;50.422;7.210;2023-08-01T05:29:17;15.00;99.90
56308;DHT22;42217;50.422;7.210;2023-08-01T05:31:43;15.00;99.90
56308;DHT22;42217;50.422;7.210;2023-08-01T05:34:09;15.00;99.90
56308;DHT22;42217;50.422;7.210;2023-08-01T05:36:34;15.10;99.90
56308;DHT22;42217;50.422;7.210;2023-08-01T05:39:00;15.10;99.90
56308;DHT22;42217;50.422;7.210;2023-08-01T05:41:26;15.10;99.90
56308;DHT22;42217;50.422;7.210;2023-08-01T05:43:53;15.20;99.90
56308;DHT22;42217;50.422;7.210;2023-08-01T05:46:18;15.20;99.90
56308;DHT22;42217;50.422;7.210;2023-08-01T05:48:44;15.20;99.90
56308;DHT22;42217;50.422;7.210;2023-08-01T05:51:09;15.20;99.90
56308;DHT22;42217;50.422;7.210;2023-08-01T05:53:35;15.20;99.90
56308;DHT22;42217;50.422;7.210;2023-08-01T05:56:01;15.10;99.90
56308;DHT22;42217;50.422;7.210;2023-08-01T05:58:27;15.10;99.90
56308;DHT22;42217;50.422;7.210;2023-08-01T06:00:53;15.00;99.90
56308;DHT22;42217;50.422;7.210;2023-08-01T06:03:18;14.90;99.90
56308;DHT22;42217;50.422;7.210;2023-08-01T06:05:44;14.80;99.90
56308;DHT22;42217;50.422;7.210;2023-08-01T06:08:09;14.80;99.90
56308;DHT22;42217;50.422;7.210;2023-08-01T06:10:36;14.70;99.90
56308;DHT22;42217;50.422;7.210;2023-08-01T06:13:02;14.80;99.90
56308;DHT22;42217;50.422;7.210;2023-08-01T06:15:27;14.90;99.90
56308;DHT22;42217;50.422;7.210;2023-08-01T06:17:53;15.10;99.90
56308;DHT22;42217;50.422;7.210;2023-08-01T06:20:19;15.10;99.90
56308;DHT22;42217;50.422;7.210;2023-08-01T06:22:44;15.20;99.90
56308;DHT22;42217;50.422;7.210;2023-08-01T06:25:10;15.30;99.90
56308;DHT22;42217;50.422;7.210;2023-08-01T06:27:37;15.40;99.90
56308;DHT22;42217;50.422;7.210;2023-08-01T06:30:04;15.30;99.90
56308;DHT22;42217;50.422;7.210;2023-08-01T06:32:29;15.30;99.90
56308;DHT22;42217;50.422;7.210;2023-08-01T06:34:55;15.40;99.90
56308;DHT22;42217;50.422;7.210;2023-08-01T06:37:21;15.60;99.90
56308;DHT22;42217;50.422;7.210;2023-08-01T06:39:46;15.70;99.90
56308;DHT22;42217;50.422;7.210;2023-08-01T06:42:12;15.80;99.90
56308;DHT22;42217;50.422;7.210;2023-08-01T06:44:38;15.80;99.90
56308;DHT22;42217;50.422;7.210;2023-08-01T06:47:04;15.90;99.90
56308;DHT22;42217;50.422;7.210;2023-08-01T06:49:29;16.00;99.90
56308;DHT22;42217;50.422;7.210;2023-08-01T06:51:55;16.10;99.90
56308;DHT22;42217;50.422;7.210;2023-08-01T06:54:21;16.20;99.90
56308;DHT22;42217;50.422;7.210;2023-08-01T06:56:46;16.40;99.90
56308;DHT22;42217;50.422;7.210;2023-08-01T06:59:14;16.50;99.90
56308;DHT22;42217;50.422;7.210;2023-08-01T07:01:41;16.60;99.90
56308;DHT22;42217;50.422;7.210;2023-08-01T07:04:09;16.70;99.90
56308;DHT22;42217;50.422;7.210;2023-08-01T07:06:35;16.80;99.90
56308;DHT22;42217;50.422;7.210;2023-08-01T07:09:01;17.00;99.90
56308;DHT22;42217;50.422;7.210;2023-08-01T07:11:26;17.30;99.90
56308;DHT22;42217;50.422;7.210;2023-08-01T07:13:52;17.40;99.90
56308;DHT22;42217;50.422;7.210;2023-08-01T07:16:18;17.50;99.90
56308;DHT22;42217;50.422;7.210;2023-08-01T07:18:43;17.50;99.90
56308;DHT22;42217;50.422;7.210;2023-08-01T07:21:09;17.40;99.90
56308;DHT22;42217;50.422;7.210;2023-08-01T07:23:35;17.60;99.90
56308;DHT22;42217;50.422;7.210;2023-08-01T07:26:01;17.60;99.90
56308;DHT22;42217;50.422;7.210;2023-08-01T07:28:27;17.80;99.90
56308;DHT22;42217;50.422;7.210;2023-08-01T07:31:03;18.00;99.90
56308;DHT22;42217;50.422;7.210;2023-08-01T07:33:30;18.10;96.30
56308;DHT22;42217;50.422;7.210;2023-08-01T07:35:56;18.30;97.00
56308;DHT22;42217;50.422;7.210;2023-08-01T07:38:22;18.40;99.70
56308;DHT22;42217;50.422;7.210;2023-08-01T07:40:48;18.50;98.20
56308;DHT22;42217;50.422;7.210;2023-08-01T07:43:13;18.60;94.10
56308;DHT22;42217;50.422;7.210;2023-08-01T07:45:39;18.60;93.80
56308;DHT22;42217;50.422;7.210;2023-08-01T07:48:05;18.60;95.40
56308;DHT22;42217;50.422;7.210;2023-08-01T07:50:31;18.60;92.60
56308;DHT22;42217;50.422;7.210;2023-08-01T07:52:57;18.20;99.90
56308;DHT22;42217;50.422;7.210;2023-08-01T07:55:23;18.00;97.20
56308;DHT22;42217;50.422;7.210;2023-08-01T07:57:48;17.80;99.90
56308;DHT22;42217;50.422;7.210;2023-08-01T08:00:15;17.80;99.90
56308;DHT22;42217;50.422;7.210;2023-08-01T08:02:45;17.50;99.90
56308;DHT22;42217;50.422;7.210;2023-08-01T08:05:11;17.50;99.90
56308;DHT22;42217;50.422;7.210;2023-08-01T08:07:38;17.70;99.90
56308;DHT22;42217;50.422;7.210;2023-08-01T08:10:04;17.70;97.50
56308;DHT22;42217;50.422;7.210;2023-08-01T08:12:30;17.70;99.90
56308;DHT22;42217;50.422;7.210;2023-08-01T08:14:56;17.90;96.80
56308;DHT22;42217;50.422;7.210;2023-08-01T08:17:22;18.20;94.10
56308;DHT22;42217;50.422;7.210;2023-08-01T08:19:48;18.40;90.10
56308;DHT22;42217;50.422;7.210;2023-08-01T08:22:13;18.50;88.30
56308;DHT22;42217;50.422;7.210;2023-08-01T08:24:39;18.60;91.90
56308;DHT22;42217;50.422;7.210;2023-08-01T08:27:05;18.70;90.40
56308;DHT22;42217;50.422;7.210;2023-08-01T08:29:32;18.40;91.40
56308;DHT22;42217;50.422;7.210;2023-08-01T08:31:57;18.00;87.90
56308;DHT22;42217;50.422;7.210;2023-08-01T08:34:23;18.00;94.80
56308;DHT22;42217;50.422;7.210;2023-08-01T08:36:49;18.30;94.10
56308;DHT22;42217;50.422;7.210;2023-08-01T08:39:17;18.60;80.60
56308;DHT22;42217;50.422;7.210;2023-08-01T08:41:52;18.70;70.80
56308;DHT22;42217;50.422;7.210;2023-08-01T08:44:19;18.70;76.80
56308;DHT22;42217;50.422;7.210;2023-08-01T08:46:53;18.50;82.70
56308;DHT22;42217;50.422;7.210;2023-08-01T08:49:20;18.50;82.90
56308;DHT22;42217;50.422;7.210;2023-08-01T08:51:47;18.10;95.70
56308;DHT22;42217;50.422;7.210;2023-08-01T08:54:15;17.40;99.90
56308;DHT22;42217;50.422;7.210;2023-08-01T08:56:41;16.90;99.90
56308;DHT22;42217;50.422;7.210;2023-08-01T08:59:08;16.50;99.90
56308;DHT22;42217;50.422;7.210;2023-08-01T09:01:36;16.60;99.90
56308;DHT22;42217;50.422;7.210;2023-08-01T09:04:02;16.80;99.90
56308;DHT22;42217;50.422;7.210;2023-08-01T09:06:32;17.10;99.40
56308;DHT22;42217;50.422;7.210;2023-08-01T09:11:26;17.80;95.00
56308;DHT22;42217;50.422;7.210;2023-08-01T09:13:52;17.90;88.30
56308;DHT22;42217;50.422;7.210;2023-08-01T09:16:18;18.20;85.20
56308;DHT22;42217;50.422;7.210;2023-08-01T09:18:52;18.40;74.30
56308;DHT22;42217;50.422;7.210;2023-08-01T09:21:21;18.50;78.10
56308;DHT22;42217;50.422;7.210;2023-08-01T09:23:47;18.70;72.20
56308;DHT22;42217;50.422;7.210;2023-08-01T09:26:19;18.80;60.90
56308;DHT22;42217;50.422;7.210;2023-08-01T09:28:56;18.90;59.20
56308;DHT22;42217;50.422;7.210;2023-08-01T09:31:33;18.90;68.10
56308;DHT22;42217;50.422;7.210;2023-08-01T09:34:01;18.80;52.90
56308;DHT22;42217;50.422;7.210;2023-08-01T09:36:29;18.90;68.80
56308;DHT22;42217;50.422;7.210;2023-08-01T09:39:01;19.00;81.70
56308;DHT22;42217;50.422;7.210;2023-08-01T09:41:29;19.20;77.40
56308;DHT22;42217;50.422;7.210;2023-08-01T09:43:55;19.00;89.90
56308;DHT22;42217;50.422;7.210;2023-08-01T09:46:21;18.60;96.80
56308;DHT22;42217;50.422;7.210;2023-08-01T09:48:47;17.90;99.90
56308;DHT22;42217;50.422;7.210;2023-08-01T09:51:17;17.10;99.90
56308;DHT22;42217;50.422;7.210;2023-08-01T09:53:52;16.70;99.90
56308;DHT22;42217;50.422;7.210;2023-08-01T09:56:27;16.80;99.90
56308;DHT22;42217;50.422;7.210;2023-08-01T09:58:55;17.40;99.90
56308;DHT22;42217;50.422;7.210;2023-08-01T10:01:23;18.00;99.90
56308;DHT22;42217;50.422;7.210;2023-08-01T10:03:53;18.30;99.90
56308;DHT22;42217;50.422;7.210;2023-08-01T10:06:20;18.60;97.10
56308;DHT22;42217;50.422;7.210;2023-08-01T10:08:48;18.80;97.40
56308;DHT22;42217;50.422;7.210;2023-08-01T10:11:16;18.90;94.40
56308;DHT22;42217;50.422;7.210;2023-08-01T10:13:43;18.80;99.10
56308;DHT22;42217;50.422;7.210;2023-08-01T10:16:10;18.70;96.30
56308;DHT22;42217;50.422;7.210;2023-08-01T10:18:37;18.90;95.90
56308;DHT22;42217;50.422;7.210;2023-08-01T10:21:05;19.10;93.70
56308;DHT22;42217;50.422;7.210;2023-08-01T10:23:32;19.20;92.40
56308;DHT22;42217;50.422;7.210;2023-08-01T10:26:00;19.40;91.70
56308;DHT22;42217;50.422;7.210;2023-08-01T10:28:33;19.20;82.40
56308;DHT22;42217;50.422;7.210;2023-08-01T10:31:13;19.20;82.70
56308;DHT22;42217;50.422;7.210;2023-08-01T10:33:41;19.20;81.30
56308;DHT22;42217;50.422;7.210;2023-08-01T10:36:20;19.10;75.50
56308;DHT22;42217;50.422;7.210;2023-08-01T10:38:50;19.30;88.30
56308;DHT22;42217;50.422;7.210;2023-08-01T10:43:51;19.10;66.70
56308;DHT22;42217;50.422;7.210;2023-08-01T10:46:17;19.00;80.00
56308;DHT22;42217;50.422;7.210;2023-08-01T10:48:50;19.00;75.10
56308;DHT22;42217;50.422;7.210;2023-08-01T10:51:16;18.90;82.00
56308;DHT22;42217;50.422;7.210;2023-08-01T10:53:42;19.20;74.90
56308;DHT22;42217;50.422;7.210;2023-08-01T10:56:14;19.40;64.80
56308;DHT22;42217;50.422;7.210;2023-08-01T10:58:40;19.70;63.90
56308;DHT22;42217;50.422;7.210;2023-08-01T11:01:06;20.10;63.70
56308;DHT22;42217;50.422;7.210;2023-08-01T11:03:36;20.00;54.70
56308;DHT22;42217;50.422;7.210;2023-08-01T11:06:02;19.80;52.20
56308;DHT22;42217;50.422;7.210;2023-08-01T11:08:39;19.40;58.50
56308;DHT22;42217;50.422;7.210;2023-08-01T11:11:08;19.30;65.10
56308;DHT22;42217;50.422;7.210;2023-08-01T11:13:36;19.20;64.20
56308;DHT22;42217;50.422;7.210;2023-08-01T11:16:03;19.40;69.40
56308;DHT22;42217;50.422;7.210;2023-08-01T11:18:29;19.70;51.60
56308;DHT22;42217;50.422;7.210;2023-08-01T11:20:56;19.90;52.60
56308;DHT22;42217;50.422;7.210;2023-08-01T11:23:28;20.10;27.60
56308;DHT22;42217;50.422;7.210;2023-08-01T11:25:55;19.90;26.00
56308;DHT22;42217;50.422;7.210;2023-08-01T11:28:21;19.80;24.10
56308;DHT22;42217;50.422;7.210;2023-08-01T11:30:48;19.60;14.90
56308;DHT22;42217;50.422;7.210;2023-08-01T11:33:24;19.80;18.40
56308;DHT22;42217;50.422;7.210;2023-08-01T11:35:54;20.20;17.20
56308;DHT22;42217;50.422;7.210;2023-08-01T11:38:23;20.20;9.50
56308;DHT22;42217;50.422;7.210;2023-08-01T11:40:51;20.00;14.10
56308;DHT22;42217;50.422;7.210;2023-08-01T11:43:17;20.20;15.70
56308;DHT22;42217;50.422;7.210;2023-08-01T11:45:50;20.40;99.90
56308;DHT22;42217;50.422;7.210;2023-08-01T11:48:16;20.50;99.90
56308;DHT22;42217;50.422;7.210;2023-08-01T11:50:43;20.60;99.90
56308;DHT22;42217;50.422;7.210;2023-08-01T11:53:19;20.30;99.90
56308;DHT22;42217;50.422;7.210;2023-08-01T11:55:45;19.50;99.90
56308;DHT22;42217;50.422;7.210;2023-08-01T11:58:11;18.70;99.90
56308;DHT22;42217;50.422;7.210;2023-08-01T12:00:39;18.40;99.90
56308;DHT22;42217;50.422;7.210;2023-08-01T12:03:09;18.40;99.90
56308;DHT22;42217;50.422;7.210;2023-08-01T12:05:39;18.50;99.90
56308;DHT22;42217;50.422;7.210;2023-08-01T12:08:13;18.60;99.90
56308;DHT22;42217;50.422;7.210;2023-08-01T12:10:44;18.70;99.90
56308;DHT22;42217;50.422;7.210;2023-08-01T12:13:23;18.80;99.90
56308;DHT22;42217;50.422;7.210;2023-08-01T12:15:51;19.30;99.90
56308;DHT22;42217;50.422;7.210;2023-08-01T12:18:24;19.60;99.90
56308;DHT22;42217;50.422;7.210;2023-08-01T12:20:51;19.70;99.90
56308;DHT22;42217;50.422;7.210;2023-08-01T12:23:17;19.80;99.90
56308;DHT22;42217;50.422;7.210;2023-08-01T12:25:43;19.60;99.90
56308;DHT22;42217;50.422;7.210;2023-08-01T12:28:09;19.50;99.90
56308;DHT22;42217;50.422;7.210;2023-08-01T12:30:35;19.60;99.90
56308;DHT22;42217;50.422;7.210;2023-08-01T12:33:01;19.60;99.90
56308;DHT22;42217;50.422;7.210;2023-08-01T12:35:26;19.10;99.90
56308;DHT22;42217;50.422;7.210;2023-08-01T12:37:55;18.40;99.90
56308;DHT22;42217;50.422;7.210;2023-08-01T12:40:22;17.60;99.90
56308;DHT22;42217;50.422;7.210;2023-08-01T12:42:47;17.30;99.90
56308;DHT22;42217;50.422;7.210;2023-08-01T12:45:13;17.40;99.90
56308;DHT22;42217;50.422;7.210;2023-08-01T12:47:39;17.70;99.90
56308;DHT22;42217;50.422;7.210;2023-08-01T12:50:05;18.10;99.90
56308;DHT22;42217;50.422;7.210;2023-08-01T12:52:31;18.20;99.90
56308;DHT22;42217;50.422;7.210;2023-08-01T12:54:56;18.30;99.90
56308;DHT22;42217;50.422;7.210;2023-08-01T12:57:22;18.40;99.90
56308;DHT22;42217;50.422;7.210;2023-08-01T12:59:48;18.60;99.90
56308;DHT22;42217;50.422;7.210;2023-08-01T13:02:14;18.80;99.90
56308;DHT22;42217;50.422;7.210;2023-08-01T13:04:40;18.70;52.40
56308;DHT22;42217;50.422;7.210;2023-08-01T13:07:06;18.50;77.80
56308;DHT22;42217;50.422;7.210;2023-08-01T13:09:31;18.20;76.00
56308;DHT22;42217;50.422;7.210;2023-08-01T13:11:57;18.40;73.40
56308;DHT22;42217;50.422;7.210;2023-08-01T13:14:25;18.80;64.60
56308;DHT22;42217;50.422;7.210;2023-08-01T13:16:51;19.70;69.80
56308;DHT22;42217;50.422;7.210;2023-08-01T13:19:18;21.00;38.60
56308;DHT22;42217;50.422;7.210;2023-08-01T13:21:43;21.30;99.90
56308;DHT22;42217;50.422;7.210;2023-08-01T13:24:09;20.90;99.90
56308;DHT22;42217;50.422;7.210;2023-08-01T13:26:35;21.40;99.90
56308;DHT22;42217;50.422;7.210;2023-08-01T13:29:01;22.20;99.90
56308;DHT22;42217;50.422;7.210;2023-08-01T13:31:27;22.00;99.90
56308;DHT22;42217;50.422;7.210;2023-08-01T13:33:57;21.90;99.90
56308;DHT22;42217;50.422;7.210;2023-08-01T13:36:24;22.00;99.90
56308;DHT22;42217;50.422;7.210;2023-08-01T13:38:50;21.90;99.90
56308;DHT22;42217;50.422;7.210;2023-08-01T13:41:17;21.50;99.90
56308;DHT22;42217;50.422;7.210;2023-08-01T13:43:43;21.20;99.90
56308;DHT22;42217;50.422;7.210;2023-08-01T13:46:17;20.60;99.90
56308;DHT22;42217;50.422;7.210;2023-08-01T13:48:43;19.90;99.90
56308;DHT22;42217;50.422;7.210;2023-08-01T13:51:10;19.70;99.90
56308;DHT22;42217;50.422;7.210;2023-08-01T13:53:35;19.60;99.90
56308;DHT22;42217;50.422;7.210;2023-08-01T13:56:13;19.60;99.90
56308;DHT22;42217;50.422;7.210;2023-08-01T13:58:39;19.70;99.90
56308;DHT22;42217;50.422;7.210;2023-08-01T14:01:07;19.90;99.90
56308;DHT22;42217;50.422;7.210;2023-08-01T14:03:34;20.00;99.90
56308;DHT22;42217;50.422;7.210;2023-08-01T14:06:10;20.30;99.90
56308;DHT22;42217;50.422;7.210;2023-08-01T14:08:37;20.90;99.90
56308;DHT22;42217;50.422;7.210;2023-08-01T14:11:04;21.60;99.90
56308;DHT22;42217;50.422;7.210;2023-08-01T14:13:30;22.80;99.90
56308;DHT22;42217;50.422;7.210;2023-08-01T14:15:55;24.00;99.90
56308;DHT22;42217;50.422;7.210;2023-08-01T14:18:21;24.50;99.90
56308;DHT22;42217;50.422;7.210;2023-08-01T14:20:47;23.80;99.90
56308;DHT22;42217;50.422;7.210;2023-08-01T14:23:13;22.80;99.90
56308;DHT22;42217;50.422;7.210;2023-08-01T14:25:39;22.40;99.90
56308;DHT22;42217;50.422;7.210;2023-08-01T14:28:07;22.20;99.90
56308;DHT22;42217;50.422;7.210;2023-08-01T14:30:33;21.70;99.90
56308;DHT22;42217;50.422;7.210;2023-08-01T14:33:00;20.80;99.90
56308;DHT22;42217;50.422;7.210;2023-08-01T14:35:26;19.50;51.00
56308;DHT22;42217;50.422;7.210;2023-08-01T14:37:52;17.90;99.90
56308;DHT22;42217;50.422;7.210;2023-08-01T14:40:17;17.40;99.90
56308;DHT22;42217;50.422;7.210;2023-08-01T14:42:43;17.50;99.90
56308;DHT22;42217;50.422;7.210;2023-08-01T14:45:09;18.30;99.90
56308;DHT22;42217;50.422;7.210;2023-08-01T14:47:35;19.30;96.10
56308;DHT22;42217;50.422;7.210;2023-08-01T14:50:03;19.80;75.20
56308;DHT22;42217;50.422;7.210;2023-08-01T14:52:30;20.10;47.20
56308;DHT22;42217;50.422;7.210;2023-08-01T14:54:56;20.00;44.20
56308;DHT22;42217;50.422;7.210;2023-08-01T14:57:22;19.90;39.10
56308;DHT22;42217;50.422;7.210;2023-08-01T14:59:47;19.80;47.30
56308;DHT22;42217;50.422;7.210;2023-08-01T15:02:13;19.50;46.40
56308;DHT22;42217;50.422;7.210;2023-08-01T15:04:39;19.20;64.00
56308;DHT22;42217;50.422;7.210;2023-08-01T15:07:04;19.10;49.50
56308;DHT22;42217;50.422;7.210;2023-08-01T15:09:30;18.90;54.70
56308;DHT22;42217;50.422;7.210;2023-08-01T15:11:56;18.80;47.20
56308;DHT22;42217;50.422;7.210;2023-08-01T15:14:21;18.90;70.60
56308;DHT22;42217;50.422;7.210;2023-08-01T15:16:48;19.30;11.70
56308;DHT22;42217;50.422;7.210;2023-08-01T15:19:14;20.20;1.00
56308;DHT22;42217;50.422;7.210;2023-08-01T15:21:40;20.50;1.00
56308;DHT22;42217;50.422;7.210;2023-08-01T15:24:05;21.10;1.00
56308;DHT22;42217;50.422;7.210;2023-08-01T15:26:31;21.70;1.00
56308;DHT22;42217;50.422;7.210;2023-08-01T15:28:57;22.70;1.00
56308;DHT22;42217;50.422;7.210;2023-08-01T15:31:23;23.90;99.90